createdAt,value
2023-01-09T00:00:55.104Z,7.27
2023-01-09T00:03:23.211Z,7.25
2023-01-09T00:05:52.435Z,7.20
2023-01-09T00:08:20.291Z,7.19
2023-01-09T00:10:50.200Z,7.14
2023-01-09T00:13:19.054Z,7.13
2023-01-09T00:15:48.844Z,7.02
2023-01-09T00:18:16.631Z,6.96
2023-01-09T00:20:44.372Z,7.12
2023-01-09T00:23:13.610Z,7.15
2023-01-09T00:25:42.566Z,7.08
2023-01-09T00:28:10.606Z,7.08
2023-01-09T00:30:38.444Z,7.09
2023-01-09T00:33:06.278Z,7.05
2023-01-09T00:35:34.711Z,7.13
2023-01-09T00:38:03.552Z,7.24
2023-01-09T00:40:32.774Z,7.26
2023-01-09T00:43:01.665Z,7.21
2023-01-09T00:45:30.823Z,7.38
2023-01-09T00:48:03.819Z,7.37
2023-01-09T00:50:34.109Z,7.33
2023-01-09T00:53:08.108Z,7.23
2023-01-09T00:55:39.424Z,7.32
2023-01-09T00:58:07.881Z,7.33
2023-01-09T01:00:35.623Z,7.38
2023-01-09T01:03:03.562Z,7.38
2023-01-09T01:06:00.163Z,7.37
2023-01-09T01:08:27.951Z,7.33
2023-01-09T01:10:57.044Z,7.42
2023-01-09T01:13:24.788Z,7.37
2023-01-09T01:15:52.935Z,7.42
2023-01-09T01:18:20.756Z,7.48
2023-01-09T01:20:48.504Z,7.43
2023-01-09T01:23:16.356Z,7.32
2023-01-09T01:25:44.245Z,7.30
2023-01-09T01:28:13.347Z,7.29
2023-01-09T01:30:42.125Z,7.33
2023-01-09T01:33:11.220Z,7.27
2023-01-09T01:35:39.798Z,7.65
2023-01-09T01:38:07.582Z,7.34
2023-01-09T01:40:35.887Z,7.28
2023-01-09T01:43:03.850Z,7.28
2023-01-09T01:45:34.267Z,7.28
2023-01-09T01:48:05.934Z,7.29
2023-01-09T01:50:39.821Z,7.29
2023-01-09T01:53:12.611Z,7.33
2023-01-09T01:55:44.153Z,7.29
2023-01-09T01:58:16.260Z,7.27
2023-01-09T02:00:47.615Z,7.29
2023-01-09T02:03:18.460Z,7.29
2023-01-09T02:05:46.570Z,7.36
2023-01-09T02:08:14.970Z,7.29
2023-01-09T02:10:43.147Z,7.30
2023-01-09T02:13:11.502Z,7.23
2023-01-09T02:15:51.770Z,7.23
2023-01-09T02:18:43.475Z,7.24
2023-01-09T02:21:20.672Z,7.20
2023-01-09T02:24:08.896Z,7.21
2023-01-09T02:26:57.295Z,7.05
2023-01-09T02:30:09.913Z,7.13
2023-01-09T02:32:59.612Z,7.25
2023-01-09T02:35:52.410Z,7.26
2023-01-09T02:38:27.250Z,7.24
2023-01-09T02:41:03.427Z,7.14
2023-01-09T02:43:32.756Z,7.08
2023-01-09T02:46:00.678Z,7.07
2023-01-09T02:48:30.685Z,6.97
2023-01-09T02:51:08.681Z,6.94
2023-01-09T02:53:51.983Z,6.86
2023-01-09T02:56:38.849Z,6.79
2023-01-09T02:59:18.247Z,6.66
2023-01-09T03:01:57.254Z,6.54
2023-01-09T03:04:38.752Z,6.50
2023-01-09T03:07:15.219Z,6.48
2023-01-09T03:09:44.253Z,6.41
2023-01-09T03:12:18.185Z,6.25
2023-01-09T03:14:50.950Z,6.16
2023-01-09T03:17:26.605Z,6.12
2023-01-09T03:19:57.890Z,5.98
2023-01-09T03:22:26.264Z,6.00
2023-01-09T03:24:54.378Z,6.08
2023-01-09T03:27:22.764Z,6.10
2023-01-09T03:29:51.223Z,6.15
2023-01-09T03:32:18.960Z,6.09
2023-01-09T03:34:46.753Z,6.08
2023-01-09T03:37:15.865Z,6.11
2023-01-09T03:39:43.711Z,6.12
2023-01-09T03:42:11.523Z,6.17
2023-01-09T03:44:39.350Z,6.22
2023-01-09T03:47:07.126Z,6.16
2023-01-09T03:49:35.205Z,6.31
2023-01-09T03:52:03.023Z,6.16
2023-01-09T03:54:32.086Z,6.21
2023-01-09T03:56:59.836Z,6.22
2023-01-09T03:59:27.751Z,6.22
2023-01-09T04:01:55.957Z,6.20
2023-01-09T04:04:24.329Z,6.12
2023-01-09T04:06:52.093Z,6.12
2023-01-09T04:09:19.954Z,5.96
2023-01-09T04:11:49.140Z,5.92
2023-01-09T04:14:16.988Z,5.85
2023-01-09T04:16:44.827Z,5.85
2023-01-09T04:19:12.635Z,5.92
2023-01-09T04:21:40.455Z,5.85
2023-01-09T04:24:08.985Z,5.95
2023-01-09T04:26:36.790Z,5.80
2023-01-09T04:29:05.884Z,5.69
2023-01-09T04:31:33.664Z,5.74
2023-01-09T04:34:01.452Z,5.79
2023-01-09T04:36:29.246Z,5.59
2023-01-09T04:38:57.091Z,5.65
2023-01-09T04:41:41.602Z,5.40
2023-01-09T04:44:11.114Z,5.62
2023-01-09T04:46:39.252Z,5.57
2023-01-09T04:49:07.397Z,5.33
2023-01-09T04:51:35.115Z,5.38
2023-01-09T04:54:02.871Z,5.43
2023-01-09T04:56:30.674Z,5.48
2023-01-09T04:58:58.405Z,5.41
2023-01-09T05:01:27.739Z,5.46
2023-01-09T05:03:55.529Z,5.49
2023-01-09T05:06:23.302Z,5.50
2023-01-09T05:08:51.594Z,5.44
2023-01-09T05:11:19.434Z,5.40
2023-01-09T05:13:47.186Z,5.36
2023-01-09T05:16:15.370Z,5.31
2023-01-09T05:18:44.618Z,5.23
2023-01-09T05:21:12.704Z,5.19
2023-01-09T05:23:40.976Z,5.28
2023-01-09T05:26:08.913Z,5.22
2023-01-09T05:28:36.724Z,5.32
2023-01-09T05:31:04.745Z,5.31
2023-01-09T05:33:32.472Z,5.36
2023-01-09T05:36:01.592Z,5.38
2023-01-09T05:38:29.340Z,5.32
2023-01-09T05:40:57.054Z,5.40
2023-01-09T05:43:25.260Z,5.41
2023-01-09T05:45:53.202Z,5.34
2023-01-09T05:48:20.985Z,5.39
2023-01-09T05:50:48.779Z,5.38
2023-01-09T05:53:17.951Z,5.42
2023-01-09T05:55:46.702Z,5.39
2023-01-09T05:58:14.479Z,5.20
2023-01-09T06:00:42.216Z,5.34
2023-01-09T06:03:09.943Z,5.28
2023-01-09T06:05:37.696Z,5.30
2023-01-09T06:08:06.154Z,5.20
2023-01-09T06:10:35.275Z,5.03
2023-01-09T06:13:03.431Z,4.91
2023-01-09T06:15:31.144Z,5.05
2023-01-09T06:17:58.855Z,5.05
2023-01-09T06:20:26.959Z,5.00
2023-01-09T06:22:54.689Z,4.92
2023-01-09T06:25:22.638Z,5.01
2023-01-09T06:27:52.246Z,4.93
2023-01-09T06:30:20.500Z,4.95
2023-01-09T06:32:49.134Z,4.85
2023-01-09T06:35:20.559Z,4.72
2023-01-09T06:37:49.336Z,4.56
2023-01-09T06:40:17.888Z,4.39
2023-01-09T06:42:46.492Z,4.43
2023-01-09T06:45:15.834Z,4.28
2023-01-09T06:47:43.769Z,4.51
2023-01-09T06:50:12.751Z,4.61
2023-01-09T06:52:40.937Z,4.79
2023-01-09T06:55:10.041Z,4.67
2023-01-09T06:57:38.268Z,4.76
2023-01-09T07:00:06.824Z,4.84
2023-01-09T07:02:36.287Z,4.97
2023-01-09T07:05:07.960Z,4.90
2023-01-09T07:07:36.124Z,4.80
2023-01-09T07:10:03.896Z,4.87
2023-01-09T07:12:31.713Z,4.87
2023-01-09T07:14:59.454Z,4.87
2023-01-09T07:17:27.544Z,4.89
2023-01-09T07:19:56.684Z,4.87
2023-01-09T07:22:25.006Z,4.82
2023-01-09T07:24:52.731Z,4.84
2023-01-09T07:27:21.802Z,4.73
2023-01-09T07:29:50.233Z,4.75
2023-01-09T07:32:18.522Z,4.87
2023-01-09T07:34:46.749Z,4.90
2023-01-09T07:37:15.969Z,4.89
2023-01-09T07:39:43.775Z,4.79
2023-01-09T07:42:11.739Z,4.90
2023-01-09T07:44:40.036Z,4.90
2023-01-09T07:47:07.920Z,4.90
2023-01-09T07:49:35.866Z,4.88
2023-01-09T07:52:04.946Z,4.95
2023-01-09T07:54:34.026Z,4.97
2023-01-09T07:57:01.931Z,4.90
2023-01-09T07:59:29.946Z,4.80
2023-01-09T08:01:58.431Z,4.85
2023-01-09T08:04:26.574Z,4.88
2023-01-09T08:06:54.363Z,4.78
2023-01-09T08:09:22.075Z,4.75
2023-01-09T08:11:51.373Z,4.87
2023-01-09T08:14:19.417Z,4.74
2023-01-09T08:16:47.198Z,4.62
2023-01-09T08:19:15.133Z,4.76
2023-01-09T08:21:43.555Z,4.63
2023-01-09T08:24:11.519Z,4.69
2023-01-09T08:26:39.410Z,4.82
2023-01-09T08:29:08.504Z,4.90
2023-01-09T08:31:36.289Z,5.11
2023-01-09T08:34:04.496Z,4.95
2023-01-09T08:36:32.324Z,5.02
2023-01-09T08:39:00.497Z,5.03
2023-01-09T08:41:45.883Z,5.06
2023-01-09T08:44:32.268Z,5.17
2023-01-09T08:47:09.195Z,5.26
2023-01-09T08:49:38.941Z,5.28
2023-01-09T08:52:08.472Z,5.35
2023-01-09T08:54:36.961Z,5.46
2023-01-09T08:57:04.861Z,5.53
2023-01-09T08:59:34.090Z,5.55
2023-01-09T09:02:02.238Z,5.46
2023-01-09T09:04:30.238Z,5.43
2023-01-09T09:06:57.931Z,5.52
2023-01-09T09:09:26.376Z,5.39
2023-01-09T09:11:54.586Z,5.29
2023-01-09T09:14:54.328Z,5.31
2023-01-09T09:17:23.443Z,5.34
2023-01-09T09:19:51.180Z,5.42
2023-01-09T09:22:19.195Z,5.49
2023-01-09T09:24:47.113Z,5.64
2023-01-09T09:27:15.196Z,5.65
2023-01-09T09:29:42.974Z,5.73
2023-01-09T09:32:10.787Z,5.55
2023-01-09T09:34:39.901Z,5.60
2023-01-09T09:37:07.864Z,5.47
2023-01-09T09:39:35.767Z,5.52
2023-01-09T09:42:40.876Z,5.61
2023-01-09T09:45:23.403Z,6.01
2023-01-09T09:48:01.265Z,6.30
2023-01-09T09:50:52.752Z,6.83
2023-01-09T09:53:26.508Z,7.07
2023-01-09T09:55:54.647Z,7.22
2023-01-09T09:58:28.806Z,7.70
2023-01-09T10:00:58.676Z,7.92
2023-01-09T10:03:34.337Z,8.17
2023-01-09T10:06:08.639Z,8.15
2023-01-09T10:08:43.964Z,8.15
2023-01-09T10:11:18.452Z,8.17
2023-01-09T10:14:05.909Z,8.14
2023-01-09T10:16:53.277Z,8.03
2023-01-09T10:19:36.942Z,7.88
2023-01-09T10:22:19.425Z,8.00
2023-01-09T10:25:06.261Z,8.21
2023-01-09T10:27:46.018Z,8.66
2023-01-09T10:30:33.868Z,8.48
2023-01-09T10:33:18.019Z,8.17
2023-01-09T10:35:57.287Z,8.49
2023-01-09T10:38:32.793Z,8.46
2023-01-09T10:41:04.232Z,8.65
2023-01-09T10:43:38.333Z,8.53
2023-01-09T10:46:11.291Z,8.37
2023-01-09T10:48:42.453Z,8.38
2023-01-09T10:51:19.203Z,8.50
2023-01-09T10:53:52.248Z,8.36
2023-01-09T10:56:24.433Z,8.00
2023-01-09T10:58:54.292Z,8.16
2023-01-09T11:01:26.764Z,8.14
2023-01-09T11:03:54.571Z,8.36
2023-01-09T11:06:25.765Z,8.46
2023-01-09T11:09:00.418Z,8.30
2023-01-09T11:11:37.769Z,8.25
2023-01-09T11:14:08.390Z,8.21
2023-01-09T11:16:36.769Z,8.28
2023-01-09T11:19:04.778Z,8.45
2023-01-09T11:21:35.900Z,8.35
2023-01-09T11:24:29.664Z,8.59
2023-01-09T11:27:29.818Z,8.66
2023-01-09T11:30:21.461Z,8.77
2023-01-09T11:32:49.837Z,8.83
2023-01-09T11:35:26.635Z,8.66
2023-01-09T11:38:05.318Z,8.35
2023-01-09T11:40:46.373Z,8.25
2023-01-09T11:43:21.400Z,8.06
2023-01-09T11:46:00.756Z,7.93
2023-01-09T11:48:40.957Z,7.79
2023-01-09T11:51:22.774Z,7.74
2023-01-09T11:53:59.064Z,7.46
2023-01-09T11:56:28.400Z,7.45
2023-01-09T11:58:56.272Z,7.13
2023-01-09T12:02:11.885Z,7.07
2023-01-09T12:04:46.237Z,7.12
2023-01-09T12:07:52.900Z,6.93
2023-01-09T12:10:37.382Z,6.92
2023-01-09T12:13:19.393Z,6.73
2023-01-09T12:15:58.535Z,6.81
2023-01-09T12:18:40.801Z,7.05
2023-01-09T12:21:29.511Z,7.04
2023-01-09T12:24:18.651Z,7.01
2023-01-09T12:26:55.823Z,7.15
2023-01-09T12:29:51.119Z,7.11
2023-01-09T12:32:40.463Z,6.80
2023-01-09T12:35:21.338Z,7.22
2023-01-09T12:38:06.073Z,7.27
2023-01-09T12:41:10.825Z,7.18
2023-01-09T12:43:48.473Z,7.38
2023-01-09T12:46:20.298Z,7.14
2023-01-09T12:49:16.604Z,7.14
2023-01-09T12:51:48.449Z,7.00
2023-01-09T12:54:25.646Z,6.90
2023-01-09T12:56:58.905Z,6.96
2023-01-09T12:59:32.569Z,6.97
2023-01-09T13:02:11.158Z,6.88
2023-01-09T13:04:46.236Z,6.93
2023-01-09T13:07:19.174Z,6.93
2023-01-09T13:09:51.266Z,6.90
2023-01-09T13:12:21.749Z,6.71
2023-01-09T13:14:55.911Z,6.73
2023-01-09T13:17:28.859Z,6.41
2023-01-09T13:19:56.684Z,6.36
2023-01-09T13:22:27.425Z,6.16
2023-01-09T13:25:09.251Z,6.02
2023-01-09T13:27:41.940Z,5.83
2023-01-09T13:30:21.411Z,5.76
2023-01-09T13:33:02.010Z,5.92
2023-01-09T13:35:29.822Z,5.89
2023-01-09T13:37:57.570Z,5.97
2023-01-09T13:40:33.034Z,5.95
2023-01-09T13:43:03.178Z,5.94
2023-01-09T13:45:33.829Z,5.83
2023-01-09T13:48:41.620Z,5.86
2023-01-09T13:51:58.320Z,5.99
2023-01-09T13:55:03.307Z,5.90
2023-01-09T13:57:34.927Z,5.92
2023-01-09T14:00:45.521Z,6.02
2023-01-09T14:03:25.910Z,6.00
2023-01-09T14:06:22.429Z,5.96
2023-01-09T14:09:05.901Z,5.98
2023-01-09T14:11:33.752Z,5.95
2023-01-09T14:14:24.689Z,5.91
2023-01-09T14:16:52.695Z,5.95
2023-01-09T14:19:38.409Z,5.95
2023-01-09T14:22:18.156Z,5.86
2023-01-09T14:24:52.734Z,5.88
2023-01-09T14:28:04.159Z,5.92
2023-01-09T14:30:35.078Z,6.02
2023-01-09T14:33:04.752Z,6.02
2023-01-09T14:35:44.710Z,6.02
2023-01-09T14:38:26.953Z,5.89
2023-01-09T14:40:56.170Z,5.79
2023-01-09T14:43:34.613Z,5.92
2023-01-09T14:46:11.136Z,5.91
2023-01-09T14:48:43.653Z,5.86
2023-01-09T14:51:17.392Z,5.73
2023-01-09T14:53:47.266Z,5.66
2023-01-09T14:56:29.084Z,5.64
2023-01-09T14:59:11.462Z,5.64
2023-01-09T15:01:45.463Z,5.46
2023-01-09T15:04:24.998Z,5.50
2023-01-09T15:06:53.262Z,5.19
2023-01-09T15:09:26.830Z,5.50
2023-01-09T15:11:58.004Z,5.53
2023-01-09T15:14:35.918Z,5.40
2023-01-09T15:17:05.384Z,5.40
2023-01-09T15:19:33.605Z,5.38
2023-01-09T15:22:04.530Z,5.37
2023-01-09T15:24:35.314Z,5.41
2023-01-09T15:27:05.537Z,5.53
2023-01-09T15:29:33.347Z,5.50
2023-01-09T15:32:05.093Z,5.42
2023-01-09T15:34:34.311Z,5.53
2023-01-09T15:37:03.150Z,5.57
2023-01-09T15:39:36.640Z,5.45
2023-01-09T15:42:22.432Z,5.48
2023-01-09T15:44:53.924Z,5.53
2023-01-09T15:47:27.853Z,5.59
2023-01-09T15:49:57.377Z,5.55
2023-01-09T15:52:25.596Z,5.44
2023-01-09T15:54:54.726Z,5.27
2023-01-09T15:57:35.673Z,5.16
2023-01-09T16:00:36.246Z,5.04
2023-01-09T16:03:15.853Z,4.97
2023-01-09T16:05:46.110Z,4.84
2023-01-09T16:08:22.901Z,4.94
2023-01-09T16:10:54.186Z,4.88
2023-01-09T16:13:28.239Z,4.71
2023-01-09T16:15:57.459Z,4.67
2023-01-09T16:18:34.549Z,4.50
2023-01-09T16:21:04.435Z,4.34
2023-01-09T16:23:34.695Z,4.33
2023-01-09T16:26:15.226Z,4.21
2023-01-09T16:28:43.033Z,4.12
2023-01-09T16:31:23.785Z,4.17
2023-01-09T16:33:59.270Z,4.15
2023-01-09T16:36:29.296Z,4.12
2023-01-09T16:38:58.507Z,3.99
2023-01-09T16:41:45.447Z,4.05
2023-01-09T16:44:13.169Z,4.15
2023-01-09T16:46:44.281Z,4.05
2023-01-09T16:49:19.896Z,4.15
2023-01-09T16:51:48.519Z,4.04
2023-01-09T16:54:17.486Z,4.02
2023-01-09T16:56:49.577Z,4.11
2023-01-09T16:59:20.657Z,4.08
2023-01-09T17:01:48.960Z,4.14
2023-01-09T17:04:20.060Z,4.21
2023-01-09T17:06:49.848Z,4.19
2023-01-09T17:09:20.196Z,4.23
2023-01-09T17:11:49.444Z,4.31
2023-01-09T17:14:17.280Z,4.21
2023-01-09T17:16:46.123Z,4.24
2023-01-09T17:19:18.322Z,4.30
2023-01-09T17:21:46.501Z,4.25
2023-01-09T17:24:31.729Z,4.28
2023-01-09T17:27:19.983Z,4.35
2023-01-09T17:29:48.092Z,4.45
2023-01-09T17:32:17.467Z,4.38
2023-01-09T17:34:45.408Z,4.48
2023-01-09T17:37:16.378Z,4.46
2023-01-09T17:39:44.393Z,4.50
2023-01-09T17:42:14.004Z,4.55
2023-01-09T17:44:42.119Z,4.55
2023-01-09T17:47:15.127Z,4.41
2023-01-09T17:49:43.125Z,4.57
2023-01-09T17:52:11.278Z,4.39
2023-01-09T17:54:39.740Z,4.52
2023-01-09T17:57:08.573Z,4.49
2023-01-09T17:59:37.694Z,4.48
2023-01-09T18:02:05.557Z,4.69
2023-01-09T18:04:33.504Z,4.72
2023-01-09T18:07:01.325Z,4.64
2023-01-09T18:09:29.169Z,4.70
2023-01-09T18:11:57.372Z,4.65
2023-01-09T18:14:25.205Z,4.67
2023-01-09T18:16:54.417Z,4.72
2023-01-09T18:19:22.306Z,4.66
2023-01-09T18:21:51.210Z,4.80
2023-01-09T18:24:19.085Z,4.63
2023-01-09T18:26:46.849Z,4.69
2023-01-09T18:29:15.253Z,4.81
2023-01-09T18:31:43.504Z,4.83
2023-01-09T18:34:12.810Z,4.82
2023-01-09T18:36:40.751Z,4.67
2023-01-09T18:39:09.162Z,4.73
2023-01-09T18:41:36.997Z,4.74
2023-01-09T18:44:04.842Z,4.61
2023-01-09T18:46:32.979Z,4.67
2023-01-09T18:49:02.242Z,4.66
2023-01-09T18:51:32.924Z,4.52
2023-01-09T18:54:00.716Z,4.54
2023-01-09T18:56:28.826Z,4.50
2023-01-09T18:58:58.184Z,4.46
2023-01-09T19:01:26.906Z,4.11
2023-01-09T19:03:55.047Z,4.34
2023-01-09T19:06:23.114Z,4.38
2023-01-09T19:08:52.573Z,4.32
2023-01-09T19:11:20.315Z,4.22
2023-01-09T19:13:48.730Z,4.15
2023-01-09T19:16:16.642Z,4.28
2023-01-09T19:18:45.555Z,4.17
2023-01-09T19:21:14.788Z,4.28
2023-01-09T19:23:44.421Z,4.28
2023-01-09T19:26:18.098Z,4.23
2023-01-09T19:28:46.851Z,4.28
2023-01-09T19:31:15.370Z,4.21
2023-01-09T19:33:43.330Z,4.12
2023-01-09T19:36:11.809Z,4.22
2023-01-09T19:38:39.758Z,4.17
2023-01-09T19:41:10.588Z,4.14
2023-01-09T19:43:40.598Z,4.23
2023-01-09T19:46:09.263Z,4.18
2023-01-09T19:48:37.616Z,4.18
2023-01-09T19:51:07.517Z,4.12
2023-01-09T19:53:37.210Z,4.03
2023-01-09T19:56:09.563Z,3.96
2023-01-09T19:58:37.625Z,3.99
2023-01-09T20:01:24.780Z,4.19
2023-01-09T20:03:54.751Z,4.22
2023-01-09T20:06:25.557Z,4.19
2023-01-09T20:08:55.177Z,4.29
2023-01-09T20:11:23.778Z,4.27
2023-01-09T20:13:52.122Z,4.18
2023-01-09T20:16:23.310Z,4.33
2023-01-09T20:18:51.136Z,4.34
2023-01-09T20:21:22.082Z,4.41
2023-01-09T20:23:50.223Z,4.41
2023-01-09T20:26:18.147Z,4.42
2023-01-09T20:28:46.584Z,4.45
2023-01-09T20:31:16.824Z,4.51
2023-01-09T20:33:47.474Z,4.55
2023-01-09T20:36:15.781Z,4.60
2023-01-09T20:38:44.021Z,4.53
2023-01-09T20:41:22.390Z,4.59
2023-01-09T20:43:50.573Z,4.62
2023-01-09T20:46:18.530Z,4.62
2023-01-09T20:48:47.704Z,4.65
2023-01-09T20:51:15.572Z,4.62
2023-01-09T20:53:45.619Z,4.67
2023-01-09T20:56:13.577Z,4.69
2023-01-09T20:58:42.852Z,4.67
2023-01-09T21:01:13.007Z,4.71
2023-01-09T21:03:41.122Z,4.77
2023-01-09T21:06:12.680Z,4.77
2023-01-09T21:08:41.908Z,4.77
2023-01-09T21:11:11.099Z,4.74
2023-01-09T21:13:39.489Z,4.83
2023-01-09T21:16:11.203Z,4.82
2023-01-09T21:18:39.768Z,4.75
2023-01-09T21:21:11.424Z,4.82
2023-01-09T21:23:39.283Z,4.86
2023-01-09T21:26:09.915Z,4.84
2023-01-09T21:28:45.632Z,4.77
2023-01-09T21:31:14.422Z,4.75
2023-01-09T21:33:42.465Z,4.69
2023-01-09T21:36:12.635Z,4.59
2023-01-09T21:38:40.511Z,4.66
2023-01-09T21:41:26.021Z,4.62
2023-01-09T21:44:11.222Z,4.53
2023-01-09T21:46:56.021Z,4.50
2023-01-09T21:49:25.501Z,4.47
2023-01-09T21:51:55.648Z,4.39
2023-01-09T21:54:24.425Z,4.48
2023-01-09T21:56:52.805Z,4.45
2023-01-09T21:59:20.875Z,4.42
2023-01-09T22:01:49.603Z,4.38
2023-01-09T22:04:19.389Z,4.41
2023-01-09T22:06:47.456Z,4.35
2023-01-09T22:09:17.331Z,4.15
2023-01-09T22:11:45.117Z,4.28
2023-01-09T22:14:14.523Z,4.26
2023-01-09T22:16:42.408Z,4.14
2023-01-09T22:19:10.228Z,4.10
2023-01-09T22:21:37.999Z,4.04
2023-01-09T22:24:06.535Z,4.08
2023-01-09T22:26:36.600Z,4.06
2023-01-09T22:29:04.434Z,4.21
2023-01-09T22:31:32.945Z,4.12
2023-01-09T22:34:02.455Z,3.98
2023-01-09T22:36:31.855Z,4.02
2023-01-09T22:39:01.274Z,4.00
2023-01-09T22:41:30.833Z,3.64
2023-01-09T22:44:00.586Z,3.64
2023-01-09T22:46:28.815Z,3.76
2023-01-09T22:48:56.576Z,3.68
2023-01-09T22:51:25.152Z,3.73
2023-01-09T22:53:52.971Z,3.83
2023-01-09T22:56:22.699Z,3.54
2023-01-09T22:58:54.902Z,3.58
2023-01-09T23:01:24.111Z,3.65
2023-01-09T23:03:51.813Z,3.44
2023-01-09T23:06:21.449Z,3.61
2023-01-09T23:08:51.369Z,3.60
2023-01-09T23:11:42.202Z,3.55
2023-01-09T23:14:10.270Z,3.51
2023-01-09T23:16:39.794Z,3.61
2023-01-09T23:19:09.933Z,3.50
2023-01-09T23:21:38.132Z,3.57
2023-01-09T23:24:07.284Z,3.55
2023-01-09T23:26:35.574Z,3.52
2023-01-09T23:29:07.083Z,3.52
2023-01-09T23:31:35.489Z,3.60
2023-01-09T23:34:08.063Z,3.37
2023-01-09T23:36:35.973Z,3.48
2023-01-09T23:39:04.277Z,3.55
2023-01-09T23:41:47.407Z,3.52
2023-01-09T23:44:15.266Z,3.40
2023-01-09T23:46:43.131Z,3.54
2023-01-09T23:49:12.362Z,3.49
2023-01-09T23:51:40.063Z,3.67
2023-01-09T23:54:08.625Z,3.62
2023-01-09T23:56:36.479Z,3.55
2023-01-09T23:59:06.191Z,3.62
